Time;durP1;ratioP1;P1;durP2;ratioP2;P2;SDS_P1;SDS_P2;PMS_P1;PMS_P2;Temp;Humidity;BMP_temperature;BMP_pressure;BME280_temperature;BME280_humidity;BME280_pressure;Samples;Min_cycle;Max_cycle;Signal;HPM_P1;HPM_P2
2021/09/02 00:02:18;;;;;;;;;;;;;;;12.63;76.26;98343.53;4938643;29;19930;-95
2021/09/02 00:04:43;;;;;;;;;;;;;;;12.66;76.37;98348.31;4952959;28;20021;-94
2021/09/02 00:07:11;;;;;;;;;;;;;;;12.75;75.60;98354.44;4942032;28;19926;-94
2021/09/02 00:09:37;;;;;;;;;;;;;;;12.86;75.59;98352.75;4942007;28;19926;-94
2021/09/02 00:12:03;;;;;;;;;;;;;;;12.89;75.96;98349.31;4941298;28;20053;-94
2021/09/02 00:14:29;;;;;;;;;;;;;;;13.00;75.74;98343.31;4955951;28;19926;-93
2021/09/02 00:16:55;;;;;;;;;;;;;;;13.07;75.67;98340.75;4957459;28;19925;-94
2021/09/02 00:19:21;;;;;;;;;;;;;;;13.06;75.12;98339.16;4957750;28;19973;-94
2021/09/02 00:21:49;;;;;;;;;;;;;;;12.97;74.88;98347.56;4942158;28;20425;-94
2021/09/02 00:24:14;;;;;;;;;;;;;;;13.04;75.28;98350.47;4939641;28;20024;-95
2021/09/02 00:26:42;;;;;;;;;;;;;;;13.15;74.77;98342.53;4957631;28;19926;-94
2021/09/02 00:29:09;;;;;;;;;;;;;;;13.16;74.59;98346.88;4957462;28;19930;-96
2021/09/02 00:31:35;;;;;;;;;;;;;;;13.16;74.64;98347.66;4957378;28;19961;-94
2021/09/02 00:34:01;;;;;;;;;;;;;;;13.21;74.20;98345.78;4941765;28;19977;-94
2021/09/02 00:36:27;;;;;;;;;;;;;;;13.11;73.48;98349.84;4973935;28;19926;-96
2021/09/02 00:38:52;;;;;;;;;;;;;;;13.16;73.86;98355.09;4973680;28;19930;-96
2021/09/02 00:41:18;;;;;;;;;;;;;;;13.15;73.61;98353.50;4941306;28;20359;-94
2021/09/02 00:43:45;;;;;;;;;;;;;;;13.11;73.99;98350.69;4941934;28;19933;-94
2021/09/02 00:46:12;;;;;;;;;;;;;;;13.22;73.64;98363.88;4940881;28;19930;-94
2021/09/02 00:48:39;;;;;;;;;;;;;;;13.28;72.75;98360.53;4941877;28;20306;-94
2021/09/02 00:51:05;;;;;;;;;;;;;;;13.38;72.70;98350.97;4957530;28;19985;-94
2021/09/02 00:53:31;;;;;;;;;;;;;;;13.19;71.75;98346.16;4941458;28;20431;-95
2021/09/02 00:55:57;;;;;;;;;;;;;;;13.13;72.58;98345.63;4941555;28;20396;-96
2021/09/02 00:58:25;;;;;;;;;;;;;;;13.07;71.77;98349.75;4939413;28;20335;-93
2021/09/02 01:00:51;;;;;;;;;;;;;;;13.09;72.59;98341.19;4940276;28;19926;-94
2021/09/02 01:03:18;;;;;;;;;;;;;;;13.18;72.42;98350.06;4957652;28;19980;-95
2021/09/02 01:05:48;;;;;;;;;;;;;;;13.33;72.63;98343.00;4945349;28;20316;-95
2021/09/02 01:08:17;;;;;;;;;;;;;;;13.31;72.69;98343.38;4960380;28;19932;-95
2021/09/02 01:10:45;;;;;;;;;;;;;;;13.35;72.74;98337.97;4945117;28;20118;-96
2021/09/02 01:13:11;;;;;;;;;;;;;;;13.36;72.23;98347.78;4944897;28;19926;-95
2021/09/02 01:15:37;;;;;;;;;;;;;;;13.40;72.63;98349.44;4945051;28;20366;-94
2021/09/02 01:18:04;;;;;;;;;;;;;;;13.43;72.10;98344.41;4945045;28;19922;-95
2021/09/02 01:20:31;;;;;;;;;;;;;;;13.40;71.40;98341.22;4960730;28;19926;-96
2021/09/02 01:23:01;;;;;;;;;;;;;;;13.46;71.66;98351.94;4944755;28;19933;-95
2021/09/02 01:25:28;;;;;;;;;;;;;;;13.51;70.76;98348.91;4944874;28;19926;-95
2021/09/02 01:27:56;;;;;;;;;;;;;;;13.50;71.02;98355.56;4944428;28;19973;-95
2021/09/02 01:30:23;;;;;;;;;;;;;;;13.35;70.95;98355.22;4960673;28;20406;-95
2021/09/02 01:32:50;;;;;;;;;;;;;;;13.27;72.17;98356.19;4960243;28;19926;-95
2021/09/02 01:35:17;;;;;;;;;;;;;;;13.24;72.36;98356.06;4960810;28;19926;-94
2021/09/02 01:37:46;;;;;;;;;;;;;;;13.22;72.19;98361.13;4945283;28;19930;-95
2021/09/02 01:40:18;;;;;;;;;;;;;;;13.25;71.57;98363.19;4960271;28;19948;-94
2021/09/02 01:42:45;;;;;;;;;;;;;;;13.19;71.52;98370.84;4945058;28;19926;-95
2021/09/02 01:45:11;;;;;;;;;;;;;;;13.15;72.95;98370.75;4945761;29;19926;-95
2021/09/02 01:47:38;;;;;;;;;;;;;;;13.20;72.60;98369.69;4925663;29;20056;-95
2021/09/02 01:50:08;;;;;;;;;;;;;;;13.16;72.26;98377.84;4955471;28;19926;-95
2021/09/02 01:52:34;;;;;;;;;;;;;;;13.25;73.01;98369.47;4944535;28;19973;-94
2021/09/02 01:55:00;;;;;;;;;;;;;;;13.33;72.31;98381.41;4960951;28;19926;-95
2021/09/02 01:57:27;;;;;;;;;;;;;;;13.38;73.16;98370.97;4944296;28;19933;-95
2021/09/02 01:59:53;;;;;;;;;;;;;;;13.41;73.36;98369.47;4960015;28;20016;-95
2021/09/02 02:02:18;;;;;;;;;;;;;;;13.43;72.96;98372.66;4944428;28;20021;-95
2021/09/02 02:04:44;;;;;;;;;;;;;;;13.43;71.74;98380.88;4944245;28;19926;-95
2021/09/02 02:07:10;;;;;;;;;;;;;;;13.38;71.10;98381.97;4944405;28;20311;-95
2021/09/02 02:09:37;;;;;;;;;;;;;;;13.39;71.61;98382.75;4944468;28;19965;-94
2021/09/02 02:12:03;;;;;;;;;;;;;;;13.44;71.76;98387.16;4943497;28;19956;-95
2021/09/02 02:14:29;;;;;;;;;;;;;;;13.43;70.97;98389.13;4943635;28;19946;-95
2021/09/02 02:16:55;;;;;;;;;;;;;;;13.39;71.30;98389.03;4944243;28;19976;-94
2021/09/02 02:19:21;;;;;;;;;;;;;;;13.36;71.12;98395.22;4943577;28;20461;-94
2021/09/02 02:21:47;;;;;;;;;;;;;;;13.35;71.22;98390.09;4943308;28;19932;-94
2021/09/02 02:24:13;;;;;;;;;;;;;;;13.37;71.80;98388.59;4943795;28;19926;-94
2021/09/02 02:26:39;;;;;;;;;;;;;;;13.40;71.67;98389.81;4943931;28;19933;-94
2021/09/02 02:29:06;;;;;;;;;;;;;;;13.44;71.90;98392.66;4943777;28;19929;-94
2021/09/02 02:31:32;;;;;;;;;;;;;;;13.46;71.90;98390.38;4943285;28;20015;-95
2021/09/02 02:33:58;;;;;;;;;;;;;;;13.45;71.40;98388.78;4958423;28;20019;-94
2021/09/02 02:36:24;;;;;;;;;;;;;;;13.43;71.98;98382.84;4959967;28;19981;-93
2021/09/02 02:38:52;;;;;;;;;;;;;;;13.43;71.04;98380.88;4944113;28;19925;-94
2021/09/02 02:41:18;;;;;;;;;;;;;;;13.50;71.28;98363.78;4943620;28;20024;-93
2021/09/02 02:43:44;;;;;;;;;;;;;;;13.47;70.89;98364.50;4973384;28;19926;-94
2021/09/02 02:46:10;;;;;;;;;;;;;;;13.44;71.70;98362.47;4943579;28;20405;-94
2021/09/02 02:48:36;;;;;;;;;;;;;;;13.50;72.19;98369.28;4958980;28;19960;-93
2021/09/02 02:51:02;;;;;;;;;;;;;;;13.38;72.10;98372.94;4940336;29;19950;-93
2021/09/02 02:53:28;;;;;;;;;;;;;;;13.49;71.95;98381.44;4931094;29;19976;-94
2021/09/02 02:55:54;;;;;;;;;;;;;;;13.53;72.09;98385.03;4956002;29;20351;-94
2021/09/02 02:58:20;;;;;;;;;;;;;;;13.50;71.79;98389.28;4940887;29;19981;-94
2021/09/02 03:00:45;;;;;;;;;;;;;;;13.50;71.99;98383.00;4939877;29;19977;-94
2021/09/02 03:03:11;;;;;;;;;;;;;;;13.49;72.01;98387.72;4925366;29;20383;-92
2021/09/02 03:05:37;;;;;;;;;;;;;;;13.48;71.74;98390.81;4940158;29;20069;-95
2021/09/02 03:08:04;;;;;;;;;;;;;;;13.47;72.19;98391.94;4939913;29;19966;-94
2021/09/02 03:10:29;;;;;;;;;;;;;;;13.52;71.55;98386.22;4923857;29;19941;-94
2021/09/02 03:12:56;;;;;;;;;;;;;;;13.53;72.36;98399.56;4939934;29;20292;-96
2021/09/02 03:15:22;;;;;;;;;;;;;;;13.55;71.10;98399.22;4941159;28;19976;-95
2021/09/02 03:17:48;;;;;;;;;;;;;;;13.63;71.37;98400.97;4958457;28;19930;-93
2021/09/02 03:20:14;;;;;;;;;;;;;;;13.62;71.15;98402.16;4932011;29;19952;-94
2021/09/02 03:22:40;;;;;;;;;;;;;;;13.67;71.47;98403.81;4939318;29;19927;-95
2021/09/02 03:25:06;;;;;;;;;;;;;;;13.72;70.83;98407.09;4924615;29;20315;-94
2021/09/02 03:27:33;;;;;;;;;;;;;;;13.67;70.68;98401.84;4923183;29;19926;-94
2021/09/02 03:29:58;;;;;;;;;;;;;;;13.65;70.45;98411.63;4923675;29;19958;-94
2021/09/02 03:32:24;;;;;;;;;;;;;;;13.57;70.67;98416.13;4939391;29;19927;-94
2021/09/02 03:34:50;;;;;;;;;;;;;;;13.52;70.67;98419.94;4924337;28;19970;-93
2021/09/02 03:37:18;;;;;;;;;;;;;;;13.53;71.08;98421.53;4974878;28;19930;-94
2021/09/02 03:39:43;;;;;;;;;;;;;;;13.60;70.03;98418.97;4942222;28;19936;-94
2021/09/02 03:42:10;;;;;;;;;;;;;;;13.62;70.50;98422.16;4971040;28;20025;-95
2021/09/02 03:44:36;;;;;;;;;;;;;;;13.61;71.11;98422.53;4934714;28;20048;-95
2021/09/02 03:47:02;;;;;;;;;;;;;;;13.61;70.39;98428.81;4937168;29;19930;-94
2021/09/02 03:49:31;;;;;;;;;;;;;;;13.60;70.87;98427.19;4969598;28;19926;-93
2021/09/02 03:51:57;;;;;;;;;;;;;;;13.64;69.78;98427.28;4974476;28;19926;-93
2021/09/02 03:54:22;;;;;;;;;;;;;;;13.64;70.08;98419.03;4949001;28;20006;-93
2021/09/02 03:56:48;;;;;;;;;;;;;;;13.75;70.21;98420.13;4932915;28;19930;-93
2021/09/02 03:59:14;;;;;;;;;;;;;;;13.81;70.09;98424.19;4957974;28;19961;-93
2021/09/02 04:01:41;;;;;;;;;;;;;;;13.80;69.88;98425.31;4957581;28;19950;-93
2021/09/02 04:04:06;;;;;;;;;;;;;;;13.77;70.28;98425.25;4923941;29;20404;-89
2021/09/02 04:06:32;;;;;;;;;;;;;;;13.80;70.76;98421.78;4955895;28;20419;-93
2021/09/02 04:08:58;;;;;;;;;;;;;;;13.96;69.32;98413.53;4923376;29;19930;-90
2021/09/02 04:11:24;;;;;;;;;;;;;;;13.98;68.44;98409.28;4953315;29;19926;-91
2021/09/02 04:13:50;;;;;;;;;;;;;;;13.88;68.27;98409.81;4938038;29;20311;-91
2021/09/02 04:16:16;;;;;;;;;;;;;;;13.90;69.16;98415.75;4968316;28;19922;-93
2021/09/02 04:18:41;;;;;;;;;;;;;;;13.92;69.65;98416.19;4957126;28;19926;-94
2021/09/02 04:21:09;;;;;;;;;;;;;;;13.96;68.11;98416.28;4956023;28;19926;-93
2021/09/02 04:23:35;;;;;;;;;;;;;;;14.07;68.62;98420.88;4967048;28;19973;-89
2021/09/02 04:26:02;;;;;;;;;;;;;;;14.03;67.60;98417.22;4951883;28;19926;-94
2021/09/02 04:28:29;;;;;;;;;;;;;;;14.18;69.32;98423.06;4947097;28;19930;-92
2021/09/02 04:30:55;;;;;;;;;;;;;;;14.32;68.29;98420.63;4931056;28;19926;-92
2021/09/02 04:33:20;;;;;;;;;;;;;;;14.40;67.94;98429.81;4935914;28;19929;-91
2021/09/02 04:35:46;;;;;;;;;;;;;;;14.41;66.62;98417.69;4947432;28;20065;-88
2021/09/02 04:38:12;;;;;;;;;;;;;;;14.36;68.15;98429.72;4966306;28;19968;-91
2021/09/02 04:40:38;;;;;;;;;;;;;;;14.35;67.00;98428.16;4927851;28;19953;-85
2021/09/02 04:43:04;;;;;;;;;;;;;;;14.39;67.49;98436.47;4968679;28;19926;-85
2021/09/02 04:45:30;;;;;;;;;;;;;;;14.34;67.59;98427.34;4969310;28;19926;-82
2021/09/02 04:47:56;;;;;;;;;;;;;;;14.39;67.23;98430.97;4961612;28;19933;-82
2021/09/02 04:50:22;;;;;;;;;;;;;;;14.36;67.24;98435.22;4960594;28;19952;-79
2021/09/02 04:52:48;;;;;;;;;;;;;;;14.37;66.90;98436.03;4971842;28;19930;-82
2021/09/02 04:55:14;;;;;;;;;;;;;;;14.38;66.07;98435.69;4971885;28;20314;-82
2021/09/02 04:57:41;;;;;;;;;;;;;;;14.46;66.60;98428.38;4965153;28;19937;-83
2021/09/02 05:00:08;;;;;;;;;;;;;;;14.52;65.63;98429.72;4957192;28;19930;-81
2021/09/02 05:02:35;;;;;;;;;;;;;;;14.30;66.20;98423.75;4958318;28;19986;-84
2021/09/02 05:05:01;;;;;;;;;;;;;;;14.30;65.84;98434.75;4958097;28;19931;-88
2021/09/02 05:07:27;;;;;;;;;;;;;;;14.39;67.38;98439.22;4967866;28;19948;-83
2021/09/02 05:09:53;;;;;;;;;;;;;;;14.54;66.55;98436.47;4958865;28;20311;-87
2021/09/02 05:12:19;;;;;;;;;;;;;;;14.59;65.97;98434.56;4963059;28;19933;-85
2021/09/02 05:14:45;;;;;;;;;;;;;;;14.67;66.14;98436.31;4956867;28;19930;-89
2021/09/02 05:17:12;;;;;;;;;;;;;;;14.54;66.39;98436.47;4956107;28;19930;-83
2021/09/02 05:19:37;;;;;;;;;;;;;;;14.56;66.05;98444.34;4967316;28;19926;-82
2021/09/02 05:22:03;;;;;;;;;;;;;;;14.47;65.76;98440.97;4969437;28;19926;-82
2021/09/02 05:24:29;;;;;;;;;;;;;;;14.54;65.85;98438.41;4970025;28;20066;-82
2021/09/02 05:26:55;;;;;;;;;;;;;;;14.56;65.39;98436.09;4967702;28;19953;-82
2021/09/02 05:29:22;;;;;;;;;;;;;;;14.70;65.94;98439.16;4966214;28;19926;-81
2021/09/02 05:31:49;;;;;;;;;;;;;;;14.73;64.77;98434.84;4967667;28;19926;-81
2021/09/02 05:34:15;;;;;;;;;;;;;;;14.79;65.21;98436.97;4967217;28;20156;-82
2021/09/02 05:36:42;;;;;;;;;;;;;;;14.82;65.46;98435.44;4968276;28;19933;-81
2021/09/02 05:39:10;;;;;;;;;;;;;;;14.68;64.43;98438.72;4967919;28;19930;-82
2021/09/02 05:41:36;;;;;;;;;;;;;;;14.62;65.19;98431.09;4949009;28;19930;-82
2021/09/02 05:44:02;;;;;;;;;;;;;;;14.61;64.88;98438.56;4967792;28;19953;-82
2021/09/02 05:46:28;;;;;;;;;;;;;;;14.67;65.58;98434.38;4967577;28;19963;-79
2021/09/02 05:48:54;;;;;;;;;;;;;;;14.59;64.77;98431.81;4967226;28;19926;-79
2021/09/02 05:51:20;;;;;;;;;;;;;;;14.70;64.93;98443.81;4969748;28;19932;-79
2021/09/02 05:53:47;;;;;;;;;;;;;;;14.88;65.57;98438.72;4969689;28;19926;-79
2021/09/02 05:56:13;;;;;;;;;;;;;;;14.99;65.44;98442.44;4970208;28;19926;-79
2021/09/02 05:58:39;;;;;;;;;;;;;;;15.11;65.04;98439.56;4969696;28;20358;-79
2021/09/02 06:01:05;;;;;;;;;;;;;;;15.18;64.51;98442.44;4960592;28;19926;-88
2021/09/02 06:03:31;;;;;;;;;;;;;;;15.28;63.34;98441.84;4965903;28;19973;-79
2021/09/02 06:05:57;;;;;;;;;;;;;;;15.21;63.19;98438.94;4957803;28;19926;-79
2021/09/02 06:08:23;;;;;;;;;;;;;;;15.28;63.56;98450.09;4955583;28;19926;-77
2021/09/02 06:10:49;;;;;;;;;;;;;;;15.35;63.85;98454.13;4964060;28;20017;-89
2021/09/02 06:13:15;;;;;;;;;;;;;;;15.44;64.26;98458.25;4971101;28;19938;-82
2021/09/02 06:15:43;;;;;;;;;;;;;;;15.54;62.77;98469.84;4970232;28;19926;-78
2021/09/02 06:18:09;;;;;;;;;;;;;;;15.60;61.79;98463.66;4966781;28;20403;-77
2021/09/02 06:20:35;;;;;;;;;;;;;;;15.67;62.76;98472.06;4968560;28;19930;-80
2021/09/02 06:23:00;;;;;;;;;;;;;;;15.65;62.31;98471.59;4969212;28;19933;-79
2021/09/02 06:25:26;;;;;;;;;;;;;;;15.84;62.44;98472.72;4967790;28;19926;-86
2021/09/02 06:27:52;;;;;;;;;;;;;;;15.85;61.81;98474.31;4969722;28;19926;-86
2021/09/02 06:30:18;;;;;;;;;;;;;;;15.87;60.58;98472.78;4968527;28;19930;-79
2021/09/02 06:32:58;;;;;;;;;;;;;;;15.96;61.83;98473.34;4966382;28;19922;-96
2021/09/02 06:35:32;;;;;;;;;;;;;;;15.95;60.52;98474.47;4968544;28;19926;-80
2021/09/02 06:37:58;;;;;;;;;;;;;;;15.93;60.42;98476.84;4961093;28;19963;-81
2021/09/02 06:40:24;;;;;;;;;;;;;;;15.98;60.21;98478.47;4954863;28;19927;-84
2021/09/02 06:42:50;;;;;;;;;;;;;;;16.04;61.21;98476.22;4967027;28;19926;-86
2021/09/02 06:45:17;;;;;;;;;;;;;;;16.10;60.65;98478.28;4972103;28;19926;-82
2021/09/02 06:47:43;;;;;;;;;;;;;;;16.00;59.88;98476.16;4973014;28;19926;-84
2021/09/02 06:50:11;;;;;;;;;;;;;;;16.09;60.18;98489.66;4972929;28;20032;-86
2021/09/02 06:52:37;;;;;;;;;;;;;;;16.11;61.19;98482.63;4972918;28;19926;-84
2021/09/02 06:55:03;;;;;;;;;;;;;;;16.09;60.06;98476.69;4965824;28;20379;-84
2021/09/02 06:57:29;;;;;;;;;;;;;;;16.15;61.45;98486.22;4954768;28;19926;-85
2021/09/02 06:59:56;;;;;;;;;;;;;;;16.21;60.87;98492.22;4953616;28;20454;-80
2021/09/02 07:02:22;;;;;;;;;;;;;;;16.11;59.66;98487.34;4954642;28;19965;-78
2021/09/02 07:04:48;;;;;;;;;;;;;;;16.01;59.55;98487.97;4962765;28;20137;-85
2021/09/02 07:07:15;;;;;;;;;;;;;;;16.04;60.33;98499.06;4965407;28;19922;-83
2021/09/02 07:09:40;;;;;;;;;;;;;;;16.06;59.60;98495.91;4972417;28;19980;-84
2021/09/02 07:12:06;;;;;;;;;;;;;;;16.13;59.67;98496.06;4968937;28;19981;-84
2021/09/02 07:14:32;;;;;;;;;;;;;;;16.12;60.71;98508.22;4954394;28;19934;-85
2021/09/02 07:16:58;;;;;;;;;;;;;;;16.20;60.37;98502.47;4956994;28;20370;-83
2021/09/02 07:19:24;;;;;;;;;;;;;;;15.97;58.12;98509.97;4961152;28;20410;-84
2021/09/02 07:21:50;;;;;;;;;;;;;;;15.95;59.19;98504.81;4955088;28;19933;-85
2021/09/02 07:24:16;;;;;;;;;;;;;;;15.76;56.50;98504.91;4967015;28;19927;-83
2021/09/02 07:26:41;;;;;;;;;;;;;;;15.54;56.14;98508.41;4961496;28;19933;-84
2021/09/02 07:29:08;;;;;;;;;;;;;;;15.36;56.03;98500.56;4971371;28;20431;-83
2021/09/02 07:31:34;;;;;;;;;;;;;;;15.19;56.05;98503.78;4966530;28;19949;-86
2021/09/02 07:34:03;;;;;;;;;;;;;;;15.23;57.20;98501.91;4953030;28;19954;-82
2021/09/02 07:36:29;;;;;;;;;;;;;;;15.18;56.76;98510.47;4959384;28;19933;-86
2021/09/02 07:38:55;;;;;;;;;;;;;;;15.07;56.54;98512.22;4959730;28;19927;-83
2021/09/02 07:41:22;;;;;;;;;;;;;;;14.91;57.16;98512.28;4953915;28;19930;-83
2021/09/02 07:43:47;;;;;;;;;;;;;;;14.88;56.76;98515.75;4965431;28;20415;-77
2021/09/02 07:46:13;;;;;;;;;;;;;;;15.08;58.21;98517.34;4957641;28;19934;-81
2021/09/02 07:48:41;;;;;;;;;;;;;;;15.18;57.51;98516.75;4958787;28;20380;-80
2021/09/02 07:51:07;;;;;;;;;;;;;;;15.26;57.58;98520.44;4953749;28;19980;-87
2021/09/02 07:53:33;;;;;;;;;;;;;;;15.23;58.27;98522.00;4953768;28;19949;-81
2021/09/02 07:55:59;;;;;;;;;;;;;;;15.15;59.55;98520.25;4937150;28;20447;-87
2021/09/02 07:58:25;;;;;;;;;;;;;;;15.16;58.81;98521.03;4958255;28;20391;-85
2021/09/02 08:00:51;;;;;;;;;;;;;;;15.18;58.94;98519.50;4959337;28;19926;-88
2021/09/02 08:03:16;;;;;;;;;;;;;;;15.20;58.66;98519.16;4962381;28;19973;-85
2021/09/02 08:05:43;;;;;;;;;;;;;;;15.02;58.47;98516.03;4971897;28;20315;-86
2021/09/02 08:08:09;;;;;;;;;;;;;;;14.99;57.74;98519.50;4971241;28;19969;-85
2021/09/02 08:10:34;;;;;;;;;;;;;;;14.87;56.48;98519.66;4961656;28;19926;-85
2021/09/02 08:13:00;;;;;;;;;;;;;;;14.95;58.25;98524.16;4966012;28;19968;-84
2021/09/02 08:15:26;;;;;;;;;;;;;;;14.98;58.87;98524.22;4971244;28;20036;-86
2021/09/02 08:17:53;;;;;;;;;;;;;;;15.04;58.12;98524.75;4959145;28;19985;-78
2021/09/02 08:20:19;;;;;;;;;;;;;;;14.99;59.95;98519.50;4953243;28;20288;-79
2021/09/02 08:22:46;;;;;;;;;;;;;;;15.07;60.98;98521.25;4967566;28;19930;-85
2021/09/02 08:25:12;;;;;;;;;;;;;;;15.27;61.68;98522.06;4958373;28;19926;-84
2021/09/02 08:27:39;;;;;;;;;;;;;;;15.12;57.14;98525.66;4959267;28;19930;-83
2021/09/02 08:30:05;;;;;;;;;;;;;;;15.10;58.08;98516.97;4954925;28;19926;-83
2021/09/02 08:32:31;;;;;;;;;;;;;;;15.21;57.60;98509.75;4967283;28;20323;-84
2021/09/02 08:34:58;;;;;;;;;;;;;;;15.03;56.60;98518.44;4972874;28;19926;-85
2021/09/02 08:37:23;;;;;;;;;;;;;;;15.04;56.22;98513.72;4955970;28;19933;-85
2021/09/02 08:39:50;;;;;;;;;;;;;;;15.30;59.00;98507.56;4972459;28;20526;-85
2021/09/02 08:42:16;;;;;;;;;;;;;;;15.46;56.83;98513.78;4968771;28;19926;-83
2021/09/02 08:44:45;;;;;;;;;;;;;;;15.36;55.13;98519.06;4969846;28;19972;-85
2021/09/02 08:47:11;;;;;;;;;;;;;;;15.32;53.89;98509.94;4969527;28;19926;-83
2021/09/02 08:49:38;;;;;;;;;;;;;;;15.15;54.47;98513.94;4960024;28;19997;-84
2021/09/02 08:52:04;;;;;;;;;;;;;;;15.17;55.84;98512.44;4957295;28;19931;-81
2021/09/02 08:54:33;;;;;;;;;;;;;;;15.14;56.85;98512.34;4957038;28;19926;-79
2021/09/02 08:56:59;;;;;;;;;;;;;;;15.22;57.04;98514.06;4967221;28;20335;-85
2021/09/02 08:59:26;;;;;;;;;;;;;;;15.22;56.95;98511.31;4964812;28;20390;-82
2021/09/02 09:01:52;;;;;;;;;;;;;;;15.13;57.67;98519.81;4962912;28;20012;-77
2021/09/02 09:04:18;;;;;;;;;;;;;;;15.22;56.76;98514.06;4952997;28;19927;-82
2021/09/02 09:06:44;;;;;;;;;;;;;;;15.25;56.97;98522.41;4952902;28;20069;-80
2021/09/02 09:09:17;;;;;;;;;;;;;;;15.32;56.49;98515.44;4952893;28;20021;-81
2021/09/02 09:11:49;;;;;;;;;;;;;;;15.34;56.60;98516.69;4964765;28;20379;-81
2021/09/02 09:14:18;;;;;;;;;;;;;;;15.28;55.54;98520.88;4954224;28;19926;-83
2021/09/02 09:16:45;;;;;;;;;;;;;;;15.27;54.79;98516.56;4958641;28;19941;-82
2021/09/02 09:19:31;;;;;;;;;;;;;;;15.28;54.89;98521.69;4972727;28;19929;-78
2021/09/02 09:21:59;;;;;;;;;;;;;;;15.24;55.49;98518.06;4971980;28;19936;-84
2021/09/02 09:24:40;;;;;;;;;;;;;;;15.17;55.42;98506.91;4972788;28;19926;-93
2021/09/02 09:27:08;;;;;;;;;;;;;;;15.24;57.00;98509.81;4974657;28;20421;-84
2021/09/02 09:29:34;;;;;;;;;;;;;;;15.33;56.62;98504.09;4976710;28;19945;-83
2021/09/02 09:32:12;;;;;;;;;;;;;;;15.49;55.87;98506.72;4976315;28;19933;-84
2021/09/02 09:34:49;;;;;;;;;;;;;;;15.71;55.71;98516.22;4975240;28;19962;-84
2021/09/02 09:37:16;;;;;;;;;;;;;;;15.76;54.78;98518.69;4975845;28;20282;-84
2021/09/02 09:39:44;;;;;;;;;;;;;;;15.70;54.16;98520.13;4974925;28;20546;-84
2021/09/02 09:42:11;;;;;;;;;;;;;;;15.86;53.70;98522.75;4975936;28;19926;-83
2021/09/02 09:44:38;;;;;;;;;;;;;;;15.94;53.69;98521.72;4975571;28;20076;-83
2021/09/02 09:47:06;;;;;;;;;;;;;;;16.02;54.27;98523.44;4975001;28;20017;-83
2021/09/02 09:49:41;;;;;;;;;;;;;;;16.12;53.19;98522.00;4975675;28;20284;-83
2021/09/02 09:52:17;;;;;;;;;;;;;;;16.11;53.00;98523.19;4976097;28;20352;-83
2021/09/02 09:54:43;;;;;;;;;;;;;;;16.11;54.23;98523.97;4974431;28;20013;-83
2021/09/02 09:57:09;;;;;;;;;;;;;;;16.09;55.12;98523.56;4974476;28;19929;-83
2021/09/02 09:59:36;;;;;;;;;;;;;;;16.22;55.22;98526.91;4975760;28;19930;-83
2021/09/02 10:02:04;;;;;;;;;;;;;;;16.26;56.95;98518.69;4975221;28;20295;-82
2021/09/02 10:04:33;;;;;;;;;;;;;;;16.25;51.02;98530.88;4973962;28;20395;-82
2021/09/02 10:07:01;;;;;;;;;;;;;;;16.27;52.75;98528.56;4975848;28;19926;-84
2021/09/02 10:09:28;;;;;;;;;;;;;;;16.41;54.47;98528.78;4975663;28;20340;-84
2021/09/02 10:11:54;;;;;;;;;;;;;;;16.35;50.48;98539.31;4975266;28;19926;-82
2021/09/02 10:14:21;;;;;;;;;;;;;;;16.30;50.42;98536.09;4975649;28;19957;-83
2021/09/02 10:16:46;;;;;;;;;;;;;;;16.36;50.23;98529.09;4975246;28;19926;-83
2021/09/02 10:19:14;;;;;;;;;;;;;;;16.37;51.03;98527.94;4974419;28;20296;-83
2021/09/02 10:21:40;;;;;;;;;;;;;;;16.42;49.54;98530.34;4975559;28;20395;-83
2021/09/02 10:24:27;;;;;;;;;;;;;;;16.34;49.57;98528.66;4975103;28;20033;-83
2021/09/02 10:26:53;;;;;;;;;;;;;;;16.38;49.56;98533.06;4974845;28;20306;-83
2021/09/02 10:29:39;;;;;;;;;;;;;;;16.56;49.47;98538.88;4975332;28;19926;-83
2021/09/02 10:32:22;;;;;;;;;;;;;;;16.39;46.43;98536.59;4958357;28;20013;-83
2021/09/02 10:34:49;;;;;;;;;;;;;;;16.23;47.97;98544.25;4975069;28;19936;-83
2021/09/02 10:37:33;;;;;;;;;;;;;;;16.30;48.38;98539.66;4974558;28;19933;-84
2021/09/02 10:40:06;;;;;;;;;;;;;;;16.38;48.08;98537.78;4973845;28;19950;-83
2021/09/02 10:42:46;;;;;;;;;;;;;;;16.32;47.88;98545.56;4975087;28;19926;-83
2021/09/02 10:45:35;;;;;;;;;;;;;;;16.10;48.46;98543.66;4973794;28;19926;-82
2021/09/02 10:48:05;;;;;;;;;;;;;;;15.84;49.52;98549.91;4973983;28;19926;-82
2021/09/02 10:50:38;;;;;;;;;;;;;;;15.76;52.59;98554.50;4975109;28;19929;-82
2021/09/02 10:53:11;;;;;;;;;;;;;;;15.80;52.31;98546.28;4974998;28;19930;-82
2021/09/02 10:55:40;;;;;;;;;;;;;;;15.79;52.63;98550.19;4974455;28;19926;-82
2021/09/02 10:58:07;;;;;;;;;;;;;;;15.82;52.50;98557.72;4974819;28;19933;-81
2021/09/02 11:00:35;;;;;;;;;;;;;;;15.78;52.98;98554.13;4974593;28;19926;-82
2021/09/02 11:03:25;;;;;;;;;;;;;;;15.82;51.98;98557.72;4974688;28;19930;-82
2021/09/02 11:05:55;;;;;;;;;;;;;;;15.93;52.56;98555.97;4973089;28;19926;-82
2021/09/02 11:08:31;;;;;;;;;;;;;;;16.10;52.26;98558.22;4974528;28;19949;-82
2021/09/02 11:11:09;;;;;;;;;;;;;;;16.24;52.16;98556.88;4972892;28;20320;-82
2021/09/02 11:13:36;;;;;;;;;;;;;;;16.17;51.19;98563.88;4973995;28;20066;-82
2021/09/02 11:16:10;;;;;;;;;;;;;;;16.21;49.77;98556.44;4974101;28;19926;-83
2021/09/02 11:18:39;;;;;;;;;;;;;;;16.31;50.03;98556.97;4955241;29;19930;-82
2021/09/02 11:21:09;;;;;;;;;;;;;;;16.39;47.51;98564.19;4955076;28;20392;-82
2021/09/02 11:23:40;;;;;;;;;;;;;;;16.48;52.91;98561.97;4968628;28;19973;-81
2021/09/02 11:26:06;;;;;;;;;;;;;;;16.61;51.91;98562.56;4973903;28;19926;-82
2021/09/02 11:28:49;;;;;;;;;;;;;;;16.65;49.43;98555.13;4974282;28;19926;-82
2021/09/02 11:31:15;;;;;;;;;;;;;;;16.86;49.11;98549.97;4974154;28;20311;-82
2021/09/02 11:33:48;;;;;;;;;;;;;;;17.04;48.87;98550.19;4974171;28;20327;-83
2021/09/02 11:36:14;;;;;;;;;;;;;;;17.18;50.22;98552.31;4972591;28;19926;-83
2021/09/02 11:38:42;;;;;;;;;;;;;;;17.24;49.56;98552.81;4974078;28;19926;-83
2021/09/02 11:41:09;;;;;;;;;;;;;;;17.16;49.82;98553.91;4973970;28;19954;-83
2021/09/02 11:43:40;;;;;;;;;;;;;;;17.03;48.36;98542.28;4973665;28;20358;-83
2021/09/02 11:46:06;;;;;;;;;;;;;;;17.01;49.41;98550.94;4973823;28;20463;-83
2021/09/02 11:48:46;;;;;;;;;;;;;;;17.23;50.02;98548.47;4971104;28;19930;-83
2021/09/02 11:51:18;;;;;;;;;;;;;;;17.53;47.97;98538.16;4973670;28;19926;-82
2021/09/02 11:53:44;;;;;;;;;;;;;;;17.52;48.39;98535.78;4973761;28;19933;-82
2021/09/02 11:56:16;;;;;;;;;;;;;;;17.41;48.29;98543.13;4973374;28;19926;-83
2021/09/02 11:58:42;;;;;;;;;;;;;;;17.09;49.97;98551.84;4973489;28;20299;-83
2021/09/02 12:01:08;;;;;;;;;;;;;;;16.84;49.80;98560.56;4973656;28;19937;-82
2021/09/02 12:03:35;;;;;;;;;;;;;;;16.73;48.16;98562.38;4971921;28;19976;-82
2021/09/02 12:06:01;;;;;;;;;;;;;;;16.64;46.53;98570.91;4973573;28;19998;-83
2021/09/02 12:08:28;;;;;;;;;;;;;;;16.64;46.58;98565.38;4973047;28;19949;-82
2021/09/02 12:10:54;;;;;;;;;;;;;;;16.72;45.42;98582.84;4973111;28;19933;-82
2021/09/02 12:13:24;;;;;;;;;;;;;;;16.38;44.50;98588.22;4973237;28;19980;-82
2021/09/02 12:16:10;;;;;;;;;;;;;;;15.84;46.21;98582.97;4973066;28;20020;-83
2021/09/02 12:18:38;;;;;;;;;;;;;;;15.50;45.39;98594.50;4972924;28;20028;-83
2021/09/02 12:21:13;;;;;;;;;;;;;;;15.16;46.20;98598.13;4972108;28;19926;-82
2021/09/02 12:23:49;;;;;;;;;;;;;;;14.90;48.49;98593.22;4973467;28;19930;-83
2021/09/02 12:26:16;;;;;;;;;;;;;;;14.88;48.37;98603.81;4973278;28;19926;-84
2021/09/02 12:28:44;;;;;;;;;;;;;;;14.99;49.10;98604.81;4972496;28;20458;-83
2021/09/02 12:31:15;;;;;;;;;;;;;;;15.15;51.15;98616.59;4973312;28;19926;-85
2021/09/02 12:34:00;;;;;;;;;;;;;;;15.19;48.79;98611.94;4973307;28;19926;-83
2021/09/02 12:36:27;;;;;;;;;;;;;;;15.12;49.79;98617.31;4973236;28;19932;-84
2021/09/02 12:38:54;;;;;;;;;;;;;;;14.84;50.45;98620.25;4972067;28;19933;-85
2021/09/02 12:41:22;;;;;;;;;;;;;;;14.69;50.60;98624.59;4972911;28;20020;-84
2021/09/02 12:44:00;;;;;;;;;;;;;;;14.52;51.01;98631.28;4971253;28;19926;-84
2021/09/02 12:46:28;;;;;;;;;;;;;;;14.41;51.08;98630.19;4972839;28;19926;-85
2021/09/02 12:49:09;;;;;;;;;;;;;;;14.43;51.98;98629.81;4973008;28;19981;-84
2021/09/02 12:51:36;;;;;;;;;;;;;;;14.31;53.84;98630.72;4971731;28;19930;-85